Time;durP1;ratioP1;P1;durP2;ratioP2;P2;SDS_P1;SDS_P2;PMS_P1;PMS_P2;Temp;Humidity;BMP_temperature;BMP_pressure;BME280_temperature;BME280_humidity;BME280_pressure;Samples;Min_cycle;Max_cycle;Signal;HPM_P1;HPM_P2
2022/01/07 00:01:35;;;;;;;10.23;5.80;;;;;;;13.12;33.89;97483.41;5078271;28;20040;-78
2022/01/07 00:04:01;;;;;;;8.57;5.27;;;;;;;12.88;34.05;97479.00;5059706;28;20043;-77
2022/01/07 00:06:27;;;;;;;9.53;5.30;;;;;;;12.81;33.83;97483.56;5059193;28;20093;-76
2022/01/07 00:08:53;;;;;;;7.60;4.53;;;;;;;12.67;33.86;97479.47;5042671;28;20047;-77
2022/01/07 00:11:18;;;;;;;10.27;5.20;;;;;;;12.51;34.22;97490.72;5075643;28;20059;-78
2022/01/07 00:13:44;;;;;;;9.73;5.17;;;;;;;12.48;33.99;97488.50;5093367;28;20460;-77
2022/01/07 00:16:11;;;;;;;9.67;5.37;;;;;;;12.69;33.76;97483.53;5075157;28;20101;-76
2022/01/07 00:18:39;;;;;;;9.50;5.00;;;;;;;13.01;32.88;97490.31;5059204;28;20044;-77
2022/01/07 00:21:05;;;;;;;9.03;4.77;;;;;;;12.89;33.48;97492.09;5076336;28;20046;-77
2022/01/07 00:23:31;;;;;;;7.03;4.10;;;;;;;12.61;32.87;97475.84;5092542;28;20044;-76
2022/01/07 00:25:57;;;;;;;7.63;4.80;;;;;;;12.74;33.04;97496.16;5041709;28;20179;-77
2022/01/07 00:28:23;;;;;;;5.27;4.07;;;;;;;12.54;33.22;97487.59;5041600;28;20039;-78
2022/01/07 00:30:49;;;;;;;9.97;4.40;;;;;;;12.43;33.20;97483.00;5057935;28;20112;-78
2022/01/07 00:33:15;;;;;;;8.37;4.37;;;;;;;12.47;33.19;97495.66;5075106;28;20051;-77
2022/01/07 00:35:41;;;;;;;9.30;4.00;;;;;;;12.61;33.17;97494.47;5093028;28;20077;-77
2022/01/07 00:38:07;;;;;;;8.10;4.03;;;;;;;12.41;32.80;97495.75;5042183;28;20048;-78
2022/01/07 00:40:33;;;;;;;5.20;3.53;;;;;;;12.46;32.92;97501.19;5058482;28;20108;-78
2022/01/07 00:42:59;;;;;;;6.07;3.47;;;;;;;12.42;32.69;97500.84;5041267;28;20043;-77
2022/01/07 00:45:25;;;;;;;5.10;3.27;;;;;;;12.55;32.26;97502.53;5058006;28;20044;-78
2022/01/07 00:47:53;;;;;;;6.17;3.50;;;;;;;12.85;32.38;97500.75;5040721;28;20036;-78
2022/01/07 00:50:21;;;;;;;7.67;4.27;;;;;;;12.59;32.44;97509.06;5055310;28;20044;-80
2022/01/07 00:52:47;;;;;;;5.07;3.47;;;;;;;12.55;32.29;97497.19;5073507;28;20040;-78
2022/01/07 00:55:14;;;;;;;4.87;3.03;;;;;;;12.52;32.33;97503.78;5091683;28;20130;-77
2022/01/07 00:57:40;;;;;;;5.77;3.13;;;;;;;11.84;32.70;97489.75;5090784;28;20036;-77
2022/01/07 01:00:09;;;;;;;4.90;2.90;;;;;;;12.75;32.07;97506.59;5056048;28;20096;-78
2022/01/07 01:02:35;;;;;;;6.03;3.17;;;;;;;12.40;31.92;97507.41;5056288;28;20066;-78
2022/01/07 01:05:07;;;;;;;5.17;2.70;;;;;;;12.82;31.36;97504.66;5074969;28;20488;-75
2022/01/07 01:07:33;;;;;;;4.70;2.67;;;;;;;12.35;31.39;97507.25;5074596;28;20518;-78
2022/01/07 01:09:59;;;;;;;4.83;3.13;;;;;;;12.35;31.61;97496.59;5074830;28;20163;-78
2022/01/07 01:12:29;;;;;;;4.83;2.80;;;;;;;12.29;31.39;97502.81;5092369;28;20408;-77
2022/01/07 01:14:54;;;;;;;4.20;2.47;;;;;;;12.38;31.27;97496.97;5091878;28;20036;-76
2022/01/07 01:17:23;;;;;;;3.93;2.63;;;;;;;12.39;31.40;97511.13;5107670;28;20047;-77
2022/01/07 01:19:52;;;;;;;6.23;2.50;;;;;;;12.30;31.29;97501.81;5074854;28;20048;-78
2022/01/07 01:22:17;;;;;;;3.87;2.17;;;;;;;12.07;31.30;97496.31;5058175;28;20108;-77
2022/01/07 01:24:43;;;;;;;3.23;1.93;;;;;;;12.08;30.91;97496.06;5074193;28;20048;-75
2022/01/07 01:27:09;;;;;;;4.80;2.17;;;;;;;11.77;31.33;97483.69;5058031;28;20068;-75
2022/01/07 01:29:35;;;;;;;3.70;1.83;;;;;;;11.81;31.57;97500.00;5058629;28;20054;-75
2022/01/07 01:32:01;;;;;;;6.53;2.93;;;;;;;11.92;31.28;97507.25;5075528;28;20048;-76
2022/01/07 01:34:27;;;;;;;3.83;1.63;;;;;;;12.02;31.03;97514.75;5092563;28;20048;-77
2022/01/07 01:36:52;;;;;;;4.13;1.70;;;;;;;12.05;31.23;97507.16;5073986;28;20514;-77
2022/01/07 01:39:18;;;;;;;2.67;1.57;;;;;;;12.10;31.07;97498.53;5074498;28;20051;-77
2022/01/07 01:41:44;;;;;;;1.93;1.60;;;;;;;12.18;31.27;97511.53;5073928;28;20556;-77
2022/01/07 01:44:14;;;;;;;2.93;1.73;;;;;;;12.30;30.78;97509.78;5057317;28;20506;-75
2022/01/07 01:46:40;;;;;;;5.40;1.60;;;;;;;12.27;31.24;97519.00;5090453;28;20040;-76
2022/01/07 01:49:06;;;;;;;2.70;1.70;;;;;;;12.43;30.45;97521.09;5057480;28;20134;-77
2022/01/07 01:51:33;;;;;;;2.90;2.00;;;;;;;12.65;31.14;97516.16;5090576;28;20083;-75
2022/01/07 01:53:59;;;;;;;3.70;1.50;;;;;;;12.15;30.68;97482.72;5073029;28;20115;-77
2022/01/07 01:56:25;;;;;;;5.37;2.00;;;;;;;12.37;31.19;97515.84;5056105;28;20130;-76
2022/01/07 01:58:50;;;;;;;3.93;2.17;;;;;;;12.34;30.89;97517.09;5056128;28;20043;-75
2022/01/07 02:01:16;;;;;;;4.73;2.00;;;;;;;12.16;30.88;97509.09;5055701;28;20044;-76
2022/01/07 02:03:43;;;;;;;4.27;1.80;;;;;;;12.53;30.74;97493.97;5055657;28;20044;-77
2022/01/07 02:06:09;;;;;;;3.67;2.27;;;;;;;12.75;31.03;97524.41;5073844;28;20097;-77
2022/01/07 02:08:36;;;;;;;3.67;1.87;;;;;;;12.47;31.31;97513.50;5091414;28;20097;-78
2022/01/07 02:11:03;;;;;;;4.93;1.90;;;;;;;12.48;31.12;97521.25;5072870;28;20110;-77
2022/01/07 02:13:29;;;;;;;3.83;2.07;;;;;;;12.18;31.13;97519.53;5089988;28;20051;-78
2022/01/07 02:15:55;;;;;;;1.83;1.67;;;;;;;12.06;30.95;97519.41;5073620;28;20036;-78
2022/01/07 02:18:21;;;;;;;2.67;1.90;;;;;;;11.92;31.33;97509.13;5073454;28;20129;-76
2022/01/07 02:20:48;;;;;;;3.00;2.00;;;;;;;11.99;30.88;97504.56;5039322;28;20035;-75
2022/01/07 02:23:16;;;;;;;3.10;2.13;;;;;;;12.05;31.20;97528.44;5056301;28;20645;-75
2022/01/07 02:25:42;;;;;;;3.83;1.97;;;;;;;11.78;31.27;97535.00;5057631;28;20090;-75
2022/01/07 02:28:08;;;;;;;7.43;1.70;;;;;;;11.68;31.80;97529.34;5056839;28;20055;-76
2022/01/07 02:30:34;;;;;;;5.13;2.03;;;;;;;11.55;31.36;97532.06;5072752;28;20040;-75
2022/01/07 02:33:00;;;;;;;6.47;2.50;;;;;;;11.61;31.67;97537.34;5055830;28;20028;-75
2022/01/07 02:35:31;;;;;;;9.13;2.83;;;;;;;12.35;30.94;97529.38;5055796;28;20058;-78
2022/01/07 02:37:57;;;;;;;5.47;2.60;;;;;;;12.16;30.75;97549.03;5055371;28;20040;-77
2022/01/07 02:40:23;;;;;;;2.27;1.80;;;;;;;11.67;31.51;97541.81;5070932;28;20043;-78
2022/01/07 02:42:49;;;;;;;4.30;1.87;;;;;;;11.45;31.55;97527.25;5071479;28;20046;-78
2022/01/07 02:45:16;;;;;;;4.63;1.77;;;;;;;11.96;31.58;97555.53;5071746;28;20884;-75
2022/01/07 02:47:57;;;;;;;2.70;1.50;;;;;;;11.98;31.44;97550.81;5054297;28;20550;-77
2022/01/07 02:50:29;;;;;;;2.10;1.40;;;;;;;12.42;30.73;97555.94;5088293;28;20040;-77
2022/01/07 02:52:56;;;;;;;1.73;1.50;;;;;;;11.95;31.15;97559.22;5088175;28;20062;-79
2022/01/07 02:55:23;;;;;;;2.00;1.40;;;;;;;11.92;31.42;97554.34;5089317;28;20051;-75
2022/01/07 02:57:49;;;;;;;2.33;1.70;;;;;;;11.71;30.62;97532.41;5090332;28;20044;-77
2022/01/07 03:00:17;;;;;;;4.10;1.40;;;;;;;12.10;31.18;97568.50;5055591;28;20043;-76
2022/01/07 03:02:44;;;;;;;2.40;1.80;;;;;;;12.21;30.55;97564.31;5090002;28;20400;-75
2022/01/07 03:05:10;;;;;;;3.73;2.20;;;;;;;12.09;30.78;97572.19;5089503;28;20051;-76
2022/01/07 03:07:36;;;;;;;2.27;1.80;;;;;;;12.17;30.25;97569.25;5090806;28;20044;-76
2022/01/07 03:10:03;;;;;;;2.20;1.40;;;;;;;12.54;30.47;97570.13;5039790;28;20394;-75
2022/01/07 03:12:29;;;;;;;1.97;1.50;;;;;;;12.23;30.19;97579.03;5073333;28;20051;-76
2022/01/07 03:14:56;;;;;;;4.83;1.70;;;;;;;12.30;30.24;97579.78;5043659;28;20048;-75
2022/01/07 03:17:21;;;;;;;2.03;1.50;;;;;;;12.29;30.21;97572.84;5076193;28;20100;-75
2022/01/07 03:19:47;;;;;;;3.67;2.60;;;;;;;12.15;29.96;97584.63;5076868;28;20043;-75
2022/01/07 03:22:13;;;;;;;2.73;1.40;;;;;;;12.09;30.04;97582.84;5077231;28;20040;-78
2022/01/07 03:24:40;;;;;;;1.50;1.40;;;;;;;12.05;30.14;97581.66;5075717;28;20039;-77
2022/01/07 03:27:06;;;;;;;2.40;1.50;;;;;;;12.40;29.75;97579.28;5059291;28;20080;-75
2022/01/07 03:29:33;;;;;;;1.50;1.40;;;;;;;12.35;29.79;97573.78;5092595;28;20055;-75
2022/01/07 03:31:59;;;;;;;1.93;1.20;;;;;;;11.83;30.45;97575.88;5043664;28;20055;-78
2022/01/07 03:34:25;;;;;;;3.03;1.27;;;;;;;11.90;30.37;97589.94;5076919;28;20032;-79
2022/01/07 03:36:50;;;;;;;2.03;1.23;;;;;;;11.91;30.76;97585.44;5059116;28;20492;-77
2022/01/07 03:39:16;;;;;;;2.53;1.20;;;;;;;11.83;30.64;97591.00;5076897;28;20429;-78
2022/01/07 03:41:42;;;;;;;1.93;1.23;;;;;;;11.46;30.40;97554.63;5043190;28;20047;-77
2022/01/07 03:44:08;;;;;;;1.40;1.30;;;;;;;11.66;30.20;97584.59;5109426;28;20039;-76
2022/01/07 03:46:34;;;;;;;2.33;1.30;;;;;;;11.70;30.76;97583.16;5058907;28;20036;-79
2022/01/07 03:49:00;;;;;;;3.70;1.50;;;;;;;11.87;30.30;97585.03;5092749;28;20188;-79
2022/01/07 03:51:26;;;;;;;1.97;1.20;;;;;;;11.94;30.23;97585.00;5059548;28;20131;-79
2022/01/07 03:53:54;;;;;;;1.90;1.50;;;;;;;11.83;30.36;97573.22;5075456;28;20044;-76
2022/01/07 03:56:20;;;;;;;1.60;1.50;;;;;;;11.90;30.47;97566.00;5094009;28;20039;-76
2022/01/07 03:58:46;;;;;;;1.97;1.50;;;;;;;11.81;30.66;97577.09;5060709;28;20456;-76
2022/01/07 04:01:12;;;;;;;1.47;1.37;;;;;;;11.79;30.42;97577.31;5042719;28;20047;-77
2022/01/07 04:03:38;;;;;;;2.83;1.50;;;;;;;11.72;30.38;97570.44;5058349;28;20040;-75
2022/01/07 04:06:04;;;;;;;2.03;1.47;;;;;;;11.71;30.52;97588.25;5058050;28;20440;-76
2022/01/07 04:08:29;;;;;;;1.90;1.40;;;;;;;11.74;30.47;97576.34;5041499;28;20044;-82
2022/01/07 04:10:55;;;;;;;2.33;1.70;;;;;;;12.00;30.44;97578.00;5058679;28;20050;-76
2022/01/07 04:13:21;;;;;;;2.87;1.80;;;;;;;11.79;30.30;97584.50;5041771;28;20040;-76
2022/01/07 04:15:47;;;;;;;2.37;1.70;;;;;;;11.83;29.82;97599.00;5042283;28;20051;-76
2022/01/07 04:18:13;;;;;;;5.00;1.73;;;;;;;11.81;30.48;97587.75;5059165;28;20097;-77
2022/01/07 04:20:39;;;;;;;1.70;1.60;;;;;;;11.88;30.17;97591.97;5041051;28;20100;-77
2022/01/07 04:23:06;;;;;;;3.23;1.60;;;;;;;12.26;30.11;97594.56;5074148;28;20100;-78
2022/01/07 04:25:33;;;;;;;3.70;1.57;;;;;;;11.96;30.43;97598.09;5073105;28;20127;-79
2022/01/07 04:28:01;;;;;;;3.53;1.80;;;;;;;12.31;30.23;97604.56;5074373;28;20098;-77
2022/01/07 04:30:35;;;;;;;3.10;1.90;;;;;;;12.43;30.02;97598.31;5074814;28;20093;-78
2022/01/07 04:33:03;;;;;;;2.43;1.90;;;;;;;12.22;30.77;97612.00;5057091;28;20032;-80
2022/01/07 04:35:30;;;;;;;3.50;2.07;;;;;;;12.28;30.10;97616.47;5094890;28;20567;-77
2022/01/07 04:37:56;;;;;;;2.30;1.90;;;;;;;11.94;30.22;97606.28;5059286;28;20040;-78
2022/01/07 04:40:22;;;;;;;3.13;2.00;;;;;;;12.01;30.19;97583.09;5075866;28;20505;-78
2022/01/07 04:42:48;;;;;;;3.00;2.03;;;;;;;12.13;30.31;97610.63;5077586;28;20135;-78
2022/01/07 04:45:14;;;;;;;2.97;2.00;;;;;;;11.92;29.89;97602.22;5092848;28;20139;-76
2022/01/07 04:47:41;;;;;;;3.00;1.73;;;;;;;12.24;30.56;97625.09;5090594;28;20656;-72
2022/01/07 04:50:12;;;;;;;1.70;1.60;;;;;;;12.53;30.26;97614.56;5089585;28;20048;-71
2022/01/07 04:52:44;;;;;;;2.42;2.05;;;;;;;12.00;30.55;97609.91;5089585;28;20154;-69
2022/01/07 04:55:14;;;;;;;2.17;1.80;;;;;;;12.11;30.53;97606.56;5054947;28;20237;-69
2022/01/07 04:57:41;;;;;;;2.35;2.10;;;;;;;12.16;30.55;97620.88;5054312;28;20127;-70
2022/01/07 05:00:08;;;;;;;12.40;7.00;;;;;;;12.16;30.47;97578.28;5070781;28;20507;-70
2022/01/07 05:02:33;;;;;;;4.77;2.40;;;;;;;12.12;30.48;97617.00;5037853;28;20043;-71
2022/01/07 05:04:59;;;;;;;7.10;4.50;;;;;;;12.14;30.49;97614.94;5073061;28;20062;-70
2022/01/07 05:07:25;;;;;;;5.47;3.80;;;;;;;12.28;30.83;97642.25;5056399;28;20088;-71
2022/01/07 05:09:51;;;;;;;4.40;2.43;;;;;;;12.21;30.83;97628.97;5073198;28;20468;-70
2022/01/07 05:12:16;;;;;;;2.23;2.00;;;;;;;12.34;30.71;97647.53;5073118;28;20044;-70
2022/01/07 05:14:42;;;;;;;2.77;2.20;;;;;;;12.29;30.55;97626.06;5056254;28;20063;-70
2022/01/07 05:17:08;;;;;;;2.13;1.97;;;;;;;12.52;30.22;97652.91;5039732;28;20044;-71
2022/01/07 05:19:35;;;;;;;2.70;2.00;;;;;;;12.43;30.56;97656.03;5072663;28;20150;-70
2022/01/07 05:22:01;;;;;;;2.70;2.20;;;;;;;12.43;30.73;97627.59;5056573;28;20055;-69
2022/01/07 05:24:29;;;;;;;3.53;2.53;;;;;;;13.11;30.08;97652.34;5072653;28;20503;-70
2022/01/07 05:26:55;;;;;;;2.90;2.07;;;;;;;12.41;30.04;97666.13;5072716;28;20185;-69
2022/01/07 05:29:21;;;;;;;1.73;1.50;;;;;;;12.38;29.73;97664.69;5056346;28;20139;-70
2022/01/07 05:31:47;;;;;;;2.27;1.60;;;;;;;12.40;30.00;97683.91;5039521;28;20534;-70
2022/01/07 05:34:13;;;;;;;1.70;1.60;;;;;;;12.34;29.96;97657.34;5072464;28;20086;-70
2022/01/07 05:36:39;;;;;;;1.67;1.57;;;;;;;12.22;29.58;97654.59;5072024;28;20084;-70
2022/01/07 05:39:06;;;;;;;1.93;1.40;;;;;;;12.37;30.00;97638.28;5072348;28;20063;-72
2022/01/07 05:41:32;;;;;;;2.20;1.57;;;;;;;12.44;29.97;97674.47;5072807;28;20047;-70
2022/01/07 05:44:00;;;;;;;2.90;1.50;;;;;;;12.77;28.76;97690.97;5055929;28;20043;-69
2022/01/07 05:46:26;;;;;;;2.20;1.60;;;;;;;12.34;29.43;97698.09;5055892;28;20040;-70
2022/01/07 05:48:52;;;;;;;2.30;1.80;;;;;;;12.19;28.79;97683.47;5072399;28;20043;-69
2022/01/07 05:51:18;;;;;;;2.23;1.50;;;;;;;12.14;28.61;97699.25;5106253;28;20051;-71
2022/01/07 05:53:44;;;;;;;1.77;1.47;;;;;;;12.13;28.91;97681.66;5055907;28;20040;-71
2022/01/07 05:56:10;;;;;;;6.20;1.70;;;;;;;12.08;28.74;97708.09;5055580;28;20071;-71
2022/01/07 05:58:36;;;;;;;2.67;1.70;;;;;;;11.93;28.59;97695.91;5038882;28;20083;-71
2022/01/07 06:01:04;;;;;;;3.03;1.70;;;;;;;12.17;28.36;97678.38;5055903;28;20086;-71
2022/01/07 06:03:32;;;;;;;2.70;1.80;;;;;;;12.20;28.86;97717.84;5055549;28;20046;-72
2022/01/07 06:06:01;;;;;;;1.70;1.60;;;;;;;11.86;28.95;97731.53;5089602;28;20557;-71
2022/01/07 06:08:26;;;;;;;1.73;1.43;;;;;;;11.58;28.50;97680.50;5055664;28;20067;-73
2022/01/07 06:10:52;;;;;;;3.97;2.30;;;;;;;11.77;28.46;97709.72;5072094;28;20591;-73
2022/01/07 06:13:18;;;;;;;4.87;2.30;;;;;;;11.90;28.47;97732.75;5055645;28;20039;-70
2022/01/07 06:15:44;;;;;;;2.77;1.97;;;;;;;11.88;28.76;97724.97;5069775;28;20047;-69
2022/01/07 06:18:09;;;;;;;2.73;2.07;;;;;;;11.92;28.74;97736.00;5084432;28;20497;-71
2022/01/07 06:20:35;;;;;;;6.40;2.30;;;;;;;11.88;28.44;97726.84;5084458;28;20813;-70
2022/01/07 06:23:01;;;;;;;7.37;2.10;;;;;;;11.98;28.99;97732.50;5083939;28;20527;-71
2022/01/07 06:25:26;;;;;;;7.70;2.23;;;;;;;11.94;29.01;97715.34;5068172;28;20256;-70
2022/01/07 06:27:52;;;;;;;4.23;1.90;;;;;;;11.95;28.22;97734.78;5051640;28;20508;-71
2022/01/07 06:30:19;;;;;;;3.20;2.00;;;;;;;11.90;28.59;97733.56;5067847;28;20047;-71
2022/01/07 06:32:44;;;;;;;4.57;2.37;;;;;;;11.99;28.61;97739.47;5038427;28;20082;-70
2022/01/07 06:35:10;;;;;;;3.63;2.07;;;;;;;12.09;28.34;97726.50;5054708;28;20069;-70
2022/01/07 06:37:37;;;;;;;2.03;1.70;;;;;;;12.30;27.50;97741.34;5089085;28;20552;-70
2022/01/07 06:40:04;;;;;;;3.30;1.90;;;;;;;12.25;28.25;97739.31;5039067;28;20409;-70
2022/01/07 06:42:30;;;;;;;4.37;2.23;;;;;;;12.10;28.10;97749.41;5072145;28;20135;-70
2022/01/07 06:44:56;;;;;;;2.30;2.07;;;;;;;12.08;28.16;97732.88;5072879;28;20147;-70
2022/01/07 06:47:22;;;;;;;4.37;2.40;;;;;;;12.07;28.27;97751.72;5089139;28;20143;-71
2022/01/07 06:49:48;;;;;;;5.53;1.97;;;;;;;11.93;28.50;97726.19;5093475;28;20484;-70
2022/01/07 06:52:14;;;;;;;2.60;2.00;;;;;;;12.09;28.09;97753.13;5092716;28;20414;-70
2022/01/07 06:54:40;;;;;;;3.40;2.10;;;;;;;12.11;28.61;97753.72;5076179;28;20086;-71
2022/01/07 06:57:05;;;;;;;2.80;1.97;;;;;;;12.06;28.65;97766.03;5076321;28;20063;-70
2022/01/07 06:59:31;;;;;;;2.17;1.90;;;;;;;11.80;28.51;97759.81;5075891;28;20494;-70
2022/01/07 07:01:57;;;;;;;13.70;7.70;;;;;;;12.12;28.26;97770.47;5076058;28;20419;-70
2022/01/07 07:04:23;;;;;;;7.20;4.20;;;;;;;11.87;28.69;97765.09;5059179;28;20436;-70
2022/01/07 07:06:49;;;;;;;2.77;2.40;;;;;;;11.66;28.46;97760.88;5059369;28;20039;-70
2022/01/07 07:09:17;;;;;;;4.83;2.90;;;;;;;11.85;28.61;97767.94;5058989;28;20044;-70
2022/01/07 07:11:43;;;;;;;2.40;2.00;;;;;;;11.68;28.03;97776.63;5076003;28;20176;-70
2022/01/07 07:14:10;;;;;;;4.40;2.13;;;;;;;11.98;28.50;97787.56;5092552;28;20047;-71
2022/01/07 07:16:36;;;;;;;2.43;1.60;;;;;;;11.81;28.28;97788.03;5092529;28;20043;-70
2022/01/07 07:19:02;;;;;;;2.13;1.90;;;;;;;11.62;27.89;97790.72;5075540;28;20044;-69
2022/01/07 07:21:27;;;;;;;2.30;1.80;;;;;;;11.70;28.37;97787.88;5042118;28;20036;-69
2022/01/07 07:23:53;;;;;;;2.20;2.00;;;;;;;11.85;28.66;97794.56;5075135;28;20071;-70
2022/01/07 07:26:19;;;;;;;6.37;2.70;;;;;;;11.85;27.95;97801.72;5092628;28;20104;-69
2022/01/07 07:28:46;;;;;;;2.27;1.80;;;;;;;11.54;28.27;97799.75;5092576;28;20036;-70
2022/01/07 07:31:15;;;;;;;4.33;2.20;;;;;;;11.64;28.21;97799.34;5058802;28;20048;-70
2022/01/07 07:38:52;;;;;;;3.33;2.27;;;;;;;12.23;27.41;97802.56;5077049;28;20043;-70
2022/01/07 07:41:18;;;;;;;4.23;2.00;;;;;;;12.66;26.25;97816.84;5058858;28;20043;-70
2022/01/07 07:43:46;;;;;;;3.83;1.70;;;;;;;13.60;26.13;97828.19;5058699;28;20530;-70
2022/01/07 07:46:11;;;;;;;6.10;1.90;;;;;;;13.98;25.30;97826.13;5093186;28;20051;-74
2022/01/07 07:48:37;;;;;;;2.10;1.75;;;;;;;15.00;23.91;97815.28;5092026;28;20036;-70
2022/01/07 07:51:03;;;;;;;2.40;1.65;;;;;;;15.62;23.69;97819.97;5093189;28;20040;-71
2022/01/07 07:53:29;;;;;;;1.73;1.42;;;;;;;15.62;23.12;97793.22;5091521;28;20079;-70
2022/01/07 07:55:54;;;;;;;2.05;1.60;;;;;;;15.88;22.07;97816.00;5058270;28;20066;-70
2022/01/07 07:58:21;;;;;;;3.50;2.25;;;;;;;15.67;22.35;97812.06;5074907;28;20503;-70
2022/01/07 08:00:50;;;;;;;16.90;2.42;;;;;;;14.90;23.26;97815.00;5057349;28;20051;-70
2022/01/07 08:03:16;;;;;;;2.95;1.88;;;;;;;14.48;22.94;97813.41;5074994;28;20040;-71
2022/01/07 08:05:44;;;;;;;5.28;2.15;;;;;;;14.38;22.69;97821.94;5091591;28;20035;-71
2022/01/07 08:08:09;;;;;;;4.78;2.20;;;;;;;13.72;22.90;97813.06;5092925;28;20563;-70
2022/01/07 08:10:43;;;;;;;8.60;2.40;;;;;;;13.65;23.58;97827.53;5057536;28;20051;-71
2022/01/07 08:18:23;;;;;;;2.87;1.47;;;;;;;13.51;22.28;97837.50;5061201;28;20131;-71
2022/01/07 08:20:50;;;;;;;7.45;2.10;;;;;;;13.61;22.38;97842.34;5058451;28;20575;-71
2022/01/07 08:23:16;;;;;;;5.10;2.17;;;;;;;13.47;22.16;97846.97;5074624;28;20036;-71
2022/01/07 08:25:42;;;;;;;7.83;2.30;;;;;;;13.78;21.99;97846.88;5041524;28;20080;-70
2022/01/07 08:28:09;;;;;;;4.97;1.80;;;;;;;14.71;21.57;97821.50;5074537;28;20075;-70
2022/01/07 08:30:59;;;;;;;4.50;1.92;;;;;;;14.21;21.71;97854.78;5057724;28;20129;-71
2022/01/07 08:36:09;;;;;;;3.80;2.00;;;;;;;13.07;22.02;97846.50;5108024;28;20539;-71
2022/01/07 08:38:37;;;;;;;3.97;2.20;;;;;;;12.73;22.22;97836.25;5057824;28;20573;-70
2022/01/07 08:41:03;;;;;;;3.40;1.90;;;;;;;12.53;22.88;97864.84;5057578;28;20039;-70
2022/01/07 08:43:29;;;;;;;3.03;2.13;;;;;;;12.43;23.31;97877.00;5074056;28;20048;-70
2022/01/07 08:45:55;;;;;;;2.30;1.93;;;;;;;12.13;24.08;97876.72;5074070;28;20123;-69
2022/01/07 08:48:21;;;;;;;3.77;2.10;;;;;;;12.04;24.56;97880.63;5057299;28;20595;-70
2022/01/07 08:50:46;;;;;;;5.40;1.80;;;;;;;12.07;24.49;97885.53;5074235;28;20040;-69
2022/01/07 08:53:12;;;;;;;3.73;1.70;;;;;;;11.45;25.02;97886.06;5108547;28;20051;-70
2022/01/07 08:55:38;;;;;;;4.33;1.83;;;;;;;11.19;24.96;97887.91;5056887;28;20479;-70
2022/01/07 08:58:04;;;;;;;1.87;1.67;;;;;;;11.24;24.65;97886.25;5072970;28;20483;-70
2022/01/07 09:00:31;;;;;;;3.30;1.77;;;;;;;11.57;24.81;97892.38;5056661;28;20093;-70
2022/01/07 09:02:56;;;;;;;2.07;1.80;;;;;;;11.01;24.91;97900.97;5090475;28;20146;-70
2022/01/07 09:05:22;;;;;;;2.47;1.90;;;;;;;10.86;25.59;97905.63;5072847;28;20373;-69
2022/01/07 09:07:48;;;;;;;4.03;2.70;;;;;;;10.98;25.12;97918.13;5039787;28;20039;-69
2022/01/07 09:10:13;;;;;;;3.30;2.60;;;;;;;10.91;25.18;97916.47;5040237;28;20089;-69
2022/01/07 09:12:39;;;;;;;2.20;1.97;;;;;;;10.75;25.42;97925.63;5056227;28;20530;-70
2022/01/07 09:15:06;;;;;;;2.27;1.83;;;;;;;11.20;24.97;97893.03;5073162;28;20040;-69
2022/01/07 09:17:35;;;;;;;4.63;2.13;;;;;;;12.06;24.92;97929.16;5090219;28;20139;-70
2022/01/07 09:20:02;;;;;;;4.83;2.30;;;;;;;13.07;23.91;97938.94;5040371;28;20044;-69
2022/01/07 09:22:28;;;;;;;2.33;1.70;;;;;;;13.22;23.33;97944.81;5091613;28;20078;-70
2022/01/07 09:24:54;;;;;;;3.27;2.07;;;;;;;13.37;22.63;97943.47;5056711;28;20071;-70
2022/01/07 09:27:20;;;;;;;2.83;1.57;;;;;;;14.04;21.99;97944.53;5056419;28;20032;-70
2022/01/07 09:29:46;;;;;;;1.98;1.63;;;;;;;13.78;21.93;97956.25;5057095;28;20050;-69
2022/01/07 09:32:12;;;;;;;2.63;1.50;;;;;;;13.98;21.08;97953.41;5073671;28;20113;-70
2022/01/07 09:34:38;;;;;;;2.15;1.45;;;;;;;13.77;21.60;97962.63;5056815;28;20100;-70
2022/01/07 09:37:04;;;;;;;1.70;1.30;;;;;;;13.79;21.17;97951.75;5073365;28;20130;-69
2022/01/07 09:39:31;;;;;;;4.53;1.63;;;;;;;13.65;21.22;97983.06;5072896;28;20052;-70
2022/01/07 09:41:59;;;;;;;1.33;1.23;;;;;;;14.11;20.67;97974.63;5056376;28;20075;-70
2022/01/07 09:44:25;;;;;;;1.20;1.10;;;;;;;13.38;21.47;97977.09;5089838;28;20047;-70
2022/01/07 09:46:53;;;;;;;3.27;1.30;;;;;;;11.84;22.68;97972.97;5039671;28;20553;-71
2022/01/07 09:49:20;;;;;;;2.10;1.30;;;;;;;11.92;22.65;97980.75;5057333;28;20048;-70
2022/01/07 09:51:47;;;;;;;1.33;1.20;;;;;;;12.50;22.16;97961.13;5040074;28;20044;-70
2022/01/07 09:54:13;;;;;;;2.10;1.30;;;;;;;12.77;21.75;97986.66;5056666;28;20101;-70
2022/01/07 09:56:40;;;;;;;1.47;1.37;;;;;;;13.38;21.83;97984.28;5072557;28;20499;-71
2022/01/07 09:59:08;;;;;;;2.80;1.53;;;;;;;14.47;21.47;97988.84;5056126;28;20496;-70
2022/01/07 10:02:00;;;;;;;1.58;1.27;;;;;;;16.35;21.13;97981.75;5072613;28;20032;-70
2022/01/07 10:04:28;;;;;;;1.58;1.30;;;;;;;17.57;19.35;97992.03;5039342;28;20134;-71
2022/01/07 10:07:20;;;;;;;3.53;2.15;;;;;;;19.20;18.57;97992.22;5072917;28;20457;-71
2022/01/07 10:10:06;;;;;;;4.50;2.40;;;;;;;20.42;16.38;97985.78;5089558;28;20044;-71
2022/01/07 10:12:47;;;;;;;2.47;1.40;;;;;;;20.77;16.36;97975.16;5072640;28;20043;-71
2022/01/07 10:15:21;;;;;;;2.05;1.50;;;;;;;21.27;15.12;97998.88;5090700;28;20059;-71
2022/01/07 10:18:01;;;;;;;2.90;1.42;;;;;;;22.29;14.42;97985.19;5056036;28;20031;-71
2022/01/07 10:20:43;;;;;;;1.83;1.30;;;;;;;22.73;13.53;97987.03;5072384;28;20047;-71
2022/01/07 10:23:27;;;;;;;1.92;1.30;;;;;;;23.70;12.99;97985.47;5072113;28;20139;-72
2022/01/07 10:25:55;;;;;;;1.63;1.35;;;;;;;22.90;11.74;97990.22;5055803;28;20155;-73
2022/01/07 10:28:27;;;;;;;1.92;1.27;;;;;;;23.60;12.11;97980.13;5072602;28;20043;-73
2022/01/07 10:30:56;;;;;;;1.70;1.38;;;;;;;24.08;11.22;97974.63;5089560;28;20039;-72
2022/01/07 10:33:35;;;;;;;1.92;1.30;;;;;;;23.66;9.78;97968.16;5073105;28;20097;-72
2022/01/07 10:36:07;;;;;;;2.55;1.42;;;;;;;24.61;10.50;97970.03;5072483;28;20044;-71
2022/01/07 10:38:45;;;;;;;1.60;1.35;;;;;;;24.96;10.09;97975.06;5055514;28;20036;-71
2022/01/07 10:41:13;;;;;;;1.85;1.38;;;;;;;25.03;9.15;97970.09;5072921;28;20108;-71
2022/01/07 10:43:39;;;;;;;2.65;1.50;;;;;;;24.02;9.57;97974.94;5055476;28;20052;-71
2022/01/07 10:46:15;;;;;;;4.97;1.30;;;;;;;24.35;9.04;97944.25;5055655;28;20043;-71
2022/01/07 10:48:53;;;;;;;2.90;1.80;;;;;;;24.44;8.92;97953.38;5038668;28;20093;-71
2022/01/07 10:51:27;;;;;;;3.70;1.90;;;;;;;24.89;8.96;97972.69;5072917;28;20040;-72
2022/01/07 10:54:03;;;;;;;2.30;1.40;;;;;;;24.81;8.90;97948.94;5055552;28;20051;-73
2022/01/07 10:56:32;;;;;;;2.40;1.55;;;;;;;24.68;9.88;97967.78;5088909;28;20051;-71
2022/01/07 10:59:03;;;;;;;2.45;1.67;;;;;;;25.64;8.38;97957.31;5072062;28;20080;-72
2022/01/07 11:01:32;;;;;;;2.28;1.70;;;;;;;25.30;7.80;97958.59;5055569;28;20044;-72
2022/01/07 11:03:59;;;;;;;3.90;1.60;;;;;;;24.81;7.89;97953.53;5105738;28;20094;-72
2022/01/07 11:06:27;;;;;;;2.42;1.50;;;;;;;25.34;8.28;97959.66;5055311;28;20044;-72
2022/01/07 11:08:54;;;;;;;1.63;1.10;;;;;;;25.22;8.27;97962.00;5038777;28;20388;-73
2022/01/07 11:11:23;;;;;;;2.47;1.38;;;;;;;24.29;8.27;97956.25;5055435;28;20067;-73
2022/01/07 11:13:49;;;;;;;2.28;1.73;;;;;;;24.31;8.63;97948.66;5072120;28;20075;-72
2022/01/07 11:16:17;;;;;;;3.03;1.90;;;;;;;24.32;8.37;97947.53;5055479;28;20067;-71
2022/01/07 11:18:44;;;;;;;2.40;2.10;;;;;;;24.47;8.41;97959.06;5071951;28;20062;-71
2022/01/07 11:21:10;;;;;;;3.25;2.13;;;;;;;24.45;8.55;97955.00;5088862;28;20415;-72
2022/01/07 11:23:41;;;;;;;2.15;1.67;;;;;;;23.38;9.24;97966.16;5055100;28;20040;-72
2022/01/07 11:26:12;;;;;;;2.72;1.55;;;;;;;23.32;9.40;97964.59;5055885;28;20503;-72
2022/01/07 11:28:55;;;;;;;1.63;1.30;;;;;;;23.34;9.60;97959.69;5038519;28;20062;-72
2022/01/07 11:31:21;;;;;;;3.03;1.45;;;;;;;21.16;9.78;97960.25;5088918;28;20511;-72
2022/01/07 11:33:47;;;;;;;3.20;1.65;;;;;;;21.54;10.08;97962.47;5071689;28;20048;-72
2022/01/07 11:36:33;;;;;;;2.15;1.35;;;;;;;20.58;10.30;97954.31;5042066;28;20560;-72
2022/01/07 11:39:04;;;;;;;2.30;1.30;;;;;;;20.58;10.45;97957.00;5058922;28;20043;-72
2022/01/07 11:41:48;;;;;;;2.15;1.20;;;;;;;20.19;10.97;97969.19;5093596;28;20043;-72
2022/01/07 11:44:35;;;;;;;1.85;1.30;;;;;;;20.19;10.76;97971.91;5058726;28;20051;-72
2022/01/07 11:47:27;;;;;;;4.97;1.60;;;;;;;18.52;11.86;97973.91;5075606;28;20048;-72
2022/01/07 11:50:06;;;;;;;2.30;1.48;;;;;;;17.77;12.50;97965.50;5073490;28;20035;-72